Terminal Aerodrome Forecast
Issued by NWS

Home | Current Version | Previous Version | Text Only | Print | Product List | Glossary On
Versions: 1 2 3 4 5 6 7 8 9 10 11 12 13 14 15 16 17 18 19 20
000
FTUS46 KSEW 212300
TAFPAE
TAF
KPAE 212324Z 2200/2224 21008KT P6SM SCT015 BKN045 BKN100
     FM220600 27005KT P6SM OVC022
     FM220800 19007KT P6SM OVC015
     FM221800 20004KT P6SM BKN025
     FM222000 20006KT P6SM BKN040 BKN100=

USA.gov is the U.S. government's official web portal to all federal, state and local government web resources and services.